sensor_id;sensor_type;location;lat;lon;timestamp;P1;durP1;ratioP1;P2;durP2;ratioP2
52470;SDS011;38382;53.160;7.026;2022-10-31T00:01:38;21.85;;;10.30;;
52470;SDS011;38382;53.160;7.026;2022-10-31T00:04:04;22.17;;;12.07;;
52470;SDS011;38382;53.160;7.026;2022-10-31T00:06:30;17.98;;;10.55;;
52470;SDS011;38382;53.160;7.026;2022-10-31T00:08:57;21.85;;;10.75;;
52470;SDS011;38382;53.160;7.026;2022-10-31T00:11:24;22.05;;;10.80;;
52470;SDS011;38382;53.160;7.026;2022-10-31T00:13:50;15.85;;;8.75;;
52470;SDS011;38382;53.160;7.026;2022-10-31T00:16:16;24.92;;;12.02;;
52470;SDS011;38382;53.160;7.026;2022-10-31T00:18:44;20.05;;;10.43;;
52470;SDS011;38382;53.160;7.026;2022-10-31T00:21:16;23.35;;;10.55;;
52470;SDS011;38382;53.160;7.026;2022-10-31T00:23:42;22.08;;;12.52;;
52470;SDS011;38382;53.160;7.026;2022-10-31T00:26:08;19.63;;;10.90;;
52470;SDS011;38382;53.160;7.026;2022-10-31T00:28:34;22.85;;;10.13;;
52470;SDS011;38382;53.160;7.026;2022-10-31T00:31:04;21.50;;;11.18;;
52470;SDS011;38382;53.160;7.026;2022-10-31T00:33:33;17.50;;;9.60;;
52470;SDS011;38382;53.160;7.026;2022-10-31T00:36:01;25.52;;;11.52;;
52470;SDS011;38382;53.160;7.026;2022-10-31T00:38:28;27.58;;;12.90;;
52470;SDS011;38382;53.160;7.026;2022-10-31T00:40:54;25.77;;;12.52;;
52470;SDS011;38382;53.160;7.026;2022-10-31T00:43:19;21.10;;;11.23;;
52470;SDS011;38382;53.160;7.026;2022-10-31T00:45:45;26.02;;;12.50;;
52470;SDS011;38382;53.160;7.026;2022-10-31T00:48:11;20.75;;;10.10;;
52470;SDS011;38382;53.160;7.026;2022-10-31T00:50:37;25.55;;;13.20;;
52470;SDS011;38382;53.160;7.026;2022-10-31T00:53:03;28.73;;;12.98;;
52470;SDS011;38382;53.160;7.026;2022-10-31T00:55:29;27.00;;;14.05;;
52470;SDS011;38382;53.160;7.026;2022-10-31T00:57:55;23.00;;;11.18;;
52470;SDS011;38382;53.160;7.026;2022-10-31T01:00:21;31.10;;;13.07;;
52470;SDS011;38382;53.160;7.026;2022-10-31T01:02:46;23.50;;;12.82;;
52470;SDS011;38382;53.160;7.026;2022-10-31T01:05:12;28.85;;;13.05;;
52470;SDS011;38382;53.160;7.026;2022-10-31T01:07:39;23.40;;;10.23;;
52470;SDS011;38382;53.160;7.026;2022-10-31T01:10:06;25.13;;;11.25;;
52470;SDS011;38382;53.160;7.026;2022-10-31T01:12:39;27.10;;;12.55;;
52470;SDS011;38382;53.160;7.026;2022-10-31T01:15:06;32.13;;;13.93;;
52470;SDS011;38382;53.160;7.026;2022-10-31T01:17:33;23.52;;;12.18;;
52470;SDS011;38382;53.160;7.026;2022-10-31T01:19:58;29.98;;;14.68;;
52470;SDS011;38382;53.160;7.026;2022-10-31T01:22:24;24.23;;;12.88;;
52470;SDS011;38382;53.160;7.026;2022-10-31T01:24:50;27.50;;;14.38;;
52470;SDS011;38382;53.160;7.026;2022-10-31T01:27:15;22.23;;;10.55;;
52470;SDS011;38382;53.160;7.026;2022-10-31T01:29:41;28.00;;;12.13;;
52470;SDS011;38382;53.160;7.026;2022-10-31T01:32:07;26.20;;;12.20;;
52470;SDS011;38382;53.160;7.026;2022-10-31T01:34:32;27.20;;;12.13;;
52470;SDS011;38382;53.160;7.026;2022-10-31T01:36:59;22.30;;;11.32;;
52470;SDS011;38382;53.160;7.026;2022-10-31T01:39:25;20.80;;;12.30;;
52470;SDS011;38382;53.160;7.026;2022-10-31T01:41:51;20.17;;;10.85;;
52470;SDS011;38382;53.160;7.026;2022-10-31T01:46:48;26.08;;;12.75;;
52470;SDS011;38382;53.160;7.026;2022-10-31T01:49:24;21.88;;;11.75;;
52470;SDS011;38382;53.160;7.026;2022-10-31T01:51:58;22.67;;;12.27;;
52470;SDS011;38382;53.160;7.026;2022-10-31T01:54:28;19.73;;;11.07;;
52470;SDS011;38382;53.160;7.026;2022-10-31T01:56:58;26.50;;;12.00;;
52470;SDS011;38382;53.160;7.026;2022-10-31T01:59:25;20.05;;;11.05;;
52470;SDS011;38382;53.160;7.026;2022-10-31T02:01:55;36.70;;;14.50;;
52470;SDS011;38382;53.160;7.026;2022-10-31T02:04:21;23.10;;;12.40;;
52470;SDS011;38382;53.160;7.026;2022-10-31T02:09:20;30.67;;;13.32;;
52470;SDS011;38382;53.160;7.026;2022-10-31T02:11:52;24.73;;;11.77;;
52470;SDS011;38382;53.160;7.026;2022-10-31T02:14:24;30.02;;;13.20;;
52470;SDS011;38382;53.160;7.026;2022-10-31T02:16:53;25.73;;;12.80;;
52470;SDS011;38382;53.160;7.026;2022-10-31T02:19:36;19.02;;;10.57;;
52470;SDS011;38382;53.160;7.026;2022-10-31T02:22:16;25.23;;;12.60;;
52470;SDS011;38382;53.160;7.026;2022-10-31T02:30:26;20.35;;;10.70;;
52470;SDS011;38382;53.160;7.026;2022-10-31T02:32:58;22.42;;;11.40;;
52470;SDS011;38382;53.160;7.026;2022-10-31T02:35:43;23.45;;;12.77;;
52470;SDS011;38382;53.160;7.026;2022-10-31T02:43:54;22.17;;;12.35;;
52470;SDS011;38382;53.160;7.026;2022-10-31T02:49:26;23.40;;;11.43;;
52470;SDS011;38382;53.160;7.026;2022-10-31T02:52:01;24.52;;;12.45;;
52470;SDS011;38382;53.160;7.026;2022-10-31T02:54:27;23.35;;;11.82;;
52470;SDS011;38382;53.160;7.026;2022-10-31T02:56:58;17.98;;;11.15;;
52470;SDS011;38382;53.160;7.026;2022-10-31T02:59:28;18.92;;;10.98;;
52470;SDS011;38382;53.160;7.026;2022-10-31T03:04:45;21.65;;;11.90;;
52470;SDS011;38382;53.160;7.026;2022-10-31T03:10:19;21.77;;;12.52;;
52470;SDS011;38382;53.160;7.026;2022-10-31T03:15:27;23.40;;;11.88;;
52470;SDS011;38382;53.160;7.026;2022-10-31T03:18:13;20.30;;;11.07;;
52470;SDS011;38382;53.160;7.026;2022-10-31T03:21:05;22.08;;;11.02;;
52470;SDS011;38382;53.160;7.026;2022-10-31T03:23:36;23.48;;;11.60;;
52470;SDS011;38382;53.160;7.026;2022-10-31T03:26:05;25.17;;;12.07;;
52470;SDS011;38382;53.160;7.026;2022-10-31T03:28:46;23.50;;;11.30;;
52470;SDS011;38382;53.160;7.026;2022-10-31T03:31:26;20.70;;;11.93;;
52470;SDS011;38382;53.160;7.026;2022-10-31T03:33:58;21.55;;;11.27;;
52470;SDS011;38382;53.160;7.026;2022-10-31T03:36:26;22.10;;;11.50;;
52470;SDS011;38382;53.160;7.026;2022-10-31T03:38:55;22.02;;;11.77;;
52470;SDS011;38382;53.160;7.026;2022-10-31T03:41:25;19.67;;;10.63;;
52470;SDS011;38382;53.160;7.026;2022-10-31T03:43:59;18.77;;;10.80;;
52470;SDS011;38382;53.160;7.026;2022-10-31T03:46:30;24.77;;;12.85;;
52470;SDS011;38382;53.160;7.026;2022-10-31T03:48:55;26.75;;;12.82;;
52470;SDS011;38382;53.160;7.026;2022-10-31T03:51:22;20.38;;;11.70;;
52470;SDS011;38382;53.160;7.026;2022-10-31T03:54:13;23.33;;;11.93;;
52470;SDS011;38382;53.160;7.026;2022-10-31T03:59:58;24.05;;;11.75;;
52470;SDS011;38382;53.160;7.026;2022-10-31T04:02:26;21.35;;;11.95;;
52470;SDS011;38382;53.160;7.026;2022-10-31T04:04:56;20.48;;;10.85;;
52470;SDS011;38382;53.160;7.026;2022-10-31T04:07:22;29.20;;;12.80;;
52470;SDS011;38382;53.160;7.026;2022-10-31T04:09:53;23.63;;;11.98;;
52470;SDS011;38382;53.160;7.026;2022-10-31T04:12:20;26.77;;;12.57;;
52470;SDS011;38382;53.160;7.026;2022-10-31T04:14:47;23.98;;;11.75;;
52470;SDS011;38382;53.160;7.026;2022-10-31T04:17:16;32.65;;;12.07;;
52470;SDS011;38382;53.160;7.026;2022-10-31T04:19:45;24.25;;;13.35;;
52470;SDS011;38382;53.160;7.026;2022-10-31T04:22:10;22.20;;;12.73;;
52470;SDS011;38382;53.160;7.026;2022-10-31T04:24:37;22.75;;;12.55;;
52470;SDS011;38382;53.160;7.026;2022-10-31T04:27:04;22.98;;;13.25;;
52470;SDS011;38382;53.160;7.026;2022-10-31T04:29:30;21.33;;;11.75;;
52470;SDS011;38382;53.160;7.026;2022-10-31T04:31:56;23.42;;;12.57;;
52470;SDS011;38382;53.160;7.026;2022-10-31T04:34:21;20.38;;;12.10;;
52470;SDS011;38382;53.160;7.026;2022-10-31T04:36:47;22.73;;;12.73;;
52470;SDS011;38382;53.160;7.026;2022-10-31T04:39:13;28.52;;;13.80;;
52470;SDS011;38382;53.160;7.026;2022-10-31T04:41:38;23.08;;;14.02;;
52470;SDS011;38382;53.160;7.026;2022-10-31T04:44:04;23.77;;;12.50;;
52470;SDS011;38382;53.160;7.026;2022-10-31T04:46:30;29.25;;;14.90;;
52470;SDS011;38382;53.160;7.026;2022-10-31T04:48:55;23.95;;;13.82;;
52470;SDS011;38382;53.160;7.026;2022-10-31T04:51:21;27.25;;;14.00;;
52470;SDS011;38382;53.160;7.026;2022-10-31T04:53:47;21.65;;;12.50;;
52470;SDS011;38382;53.160;7.026;2022-10-31T04:56:13;23.60;;;13.93;;
52470;SDS011;38382;53.160;7.026;2022-10-31T04:58:38;26.67;;;13.68;;
52470;SDS011;38382;53.160;7.026;2022-10-31T05:01:04;21.48;;;12.95;;
52470;SDS011;38382;53.160;7.026;2022-10-31T05:03:30;25.73;;;14.77;;
52470;SDS011;38382;53.160;7.026;2022-10-31T05:05:56;26.85;;;12.88;;
52470;SDS011;38382;53.160;7.026;2022-10-31T05:08:21;26.73;;;14.43;;
52470;SDS011;38382;53.160;7.026;2022-10-31T05:10:47;23.20;;;13.85;;
52470;SDS011;38382;53.160;7.026;2022-10-31T05:13:13;22.52;;;14.00;;
52470;SDS011;38382;53.160;7.026;2022-10-31T05:15:40;25.67;;;14.38;;
52470;SDS011;38382;53.160;7.026;2022-10-31T05:18:06;23.63;;;13.20;;
52470;SDS011;38382;53.160;7.026;2022-10-31T05:20:32;25.40;;;14.23;;
52470;SDS011;38382;53.160;7.026;2022-10-31T05:22:58;21.45;;;12.57;;
52470;SDS011;38382;53.160;7.026;2022-10-31T05:25:24;24.63;;;14.70;;
52470;SDS011;38382;53.160;7.026;2022-10-31T05:27:52;25.80;;;14.60;;
52470;SDS011;38382;53.160;7.026;2022-10-31T05:30:19;23.17;;;13.40;;
52470;SDS011;38382;53.160;7.026;2022-10-31T05:32:48;27.67;;;14.25;;
52470;SDS011;38382;53.160;7.026;2022-10-31T05:35:16;21.85;;;13.57;;
52470;SDS011;38382;53.160;7.026;2022-10-31T05:37:49;28.42;;;13.82;;
52470;SDS011;38382;53.160;7.026;2022-10-31T05:40:16;24.63;;;14.13;;
52470;SDS011;38382;53.160;7.026;2022-10-31T05:42:43;21.13;;;13.40;;
52470;SDS011;38382;53.160;7.026;2022-10-31T05:45:10;30.73;;;15.88;;
52470;SDS011;38382;53.160;7.026;2022-10-31T05:47:38;28.85;;;15.30;;
52470;SDS011;38382;53.160;7.026;2022-10-31T05:50:04;31.40;;;15.55;;
52470;SDS011;38382;53.160;7.026;2022-10-31T05:52:31;26.73;;;14.40;;
52470;SDS011;38382;53.160;7.026;2022-10-31T05:54:57;26.08;;;14.07;;
52470;SDS011;38382;53.160;7.026;2022-10-31T05:57:23;23.15;;;14.32;;
52470;SDS011;38382;53.160;7.026;2022-10-31T05:59:49;22.77;;;14.20;;
52470;SDS011;38382;53.160;7.026;2022-10-31T06:02:18;18.65;;;12.48;;
52470;SDS011;38382;53.160;7.026;2022-10-31T06:04:44;21.40;;;13.57;;
52470;SDS011;38382;53.160;7.026;2022-10-31T06:07:10;30.45;;;15.20;;
52470;SDS011;38382;53.160;7.026;2022-10-31T06:09:36;22.90;;;13.38;;
52470;SDS011;38382;53.160;7.026;2022-10-31T06:12:01;22.95;;;13.32;;
52470;SDS011;38382;53.160;7.026;2022-10-31T06:14:27;30.00;;;15.63;;
52470;SDS011;38382;53.160;7.026;2022-10-31T06:16:54;23.10;;;14.02;;
52470;SDS011;38382;53.160;7.026;2022-10-31T06:19:20;22.25;;;13.13;;
52470;SDS011;38382;53.160;7.026;2022-10-31T06:21:46;24.23;;;13.65;;
52470;SDS011;38382;53.160;7.026;2022-10-31T06:24:11;20.08;;;12.07;;
52470;SDS011;38382;53.160;7.026;2022-10-31T06:26:37;23.98;;;14.18;;
52470;SDS011;38382;53.160;7.026;2022-10-31T06:29:03;23.40;;;13.70;;
52470;SDS011;38382;53.160;7.026;2022-10-31T06:31:29;25.95;;;15.20;;
52470;SDS011;38382;53.160;7.026;2022-10-31T06:33:55;22.17;;;13.60;;
52470;SDS011;38382;53.160;7.026;2022-10-31T06:36:21;23.85;;;14.02;;
52470;SDS011;38382;53.160;7.026;2022-10-31T06:38:47;29.58;;;15.35;;
52470;SDS011;38382;53.160;7.026;2022-10-31T06:41:12;23.77;;;13.75;;
52470;SDS011;38382;53.160;7.026;2022-10-31T06:43:38;27.13;;;14.73;;
52470;SDS011;38382;53.160;7.026;2022-10-31T06:46:04;26.98;;;14.70;;
52470;SDS011;38382;53.160;7.026;2022-10-31T06:48:31;24.95;;;13.43;;
52470;SDS011;38382;53.160;7.026;2022-10-31T06:51:00;22.73;;;13.13;;
52470;SDS011;38382;53.160;7.026;2022-10-31T06:53:26;26.17;;;14.60;;
52470;SDS011;38382;53.160;7.026;2022-10-31T06:55:57;18.23;;;12.20;;
52470;SDS011;38382;53.160;7.026;2022-10-31T06:58:23;23.80;;;14.55;;
52470;SDS011;38382;53.160;7.026;2022-10-31T07:00:49;27.80;;;15.25;;
52470;SDS011;38382;53.160;7.026;2022-10-31T07:03:15;24.20;;;14.15;;
52470;SDS011;38382;53.160;7.026;2022-10-31T07:05:41;23.48;;;14.35;;
52470;SDS011;38382;53.160;7.026;2022-10-31T07:08:09;30.63;;;16.77;;
52470;SDS011;38382;53.160;7.026;2022-10-31T07:10:37;22.55;;;13.52;;
52470;SDS011;38382;53.160;7.026;2022-10-31T07:13:05;23.95;;;14.43;;
52470;SDS011;38382;53.160;7.026;2022-10-31T07:15:35;22.88;;;13.70;;
52470;SDS011;38382;53.160;7.026;2022-10-31T07:18:02;23.45;;;14.52;;
52470;SDS011;38382;53.160;7.026;2022-10-31T07:20:29;24.25;;;13.75;;
52470;SDS011;38382;53.160;7.026;2022-10-31T07:22:55;23.10;;;14.05;;
52470;SDS011;38382;53.160;7.026;2022-10-31T07:25:21;26.52;;;14.27;;
52470;SDS011;38382;53.160;7.026;2022-10-31T07:27:48;22.27;;;14.50;;
52470;SDS011;38382;53.160;7.026;2022-10-31T07:30:14;23.45;;;14.13;;
52470;SDS011;38382;53.160;7.026;2022-10-31T07:32:43;22.42;;;14.27;;
52470;SDS011;38382;53.160;7.026;2022-10-31T07:35:11;28.58;;;14.75;;
52470;SDS011;38382;53.160;7.026;2022-10-31T07:37:39;21.65;;;13.98;;
52470;SDS011;38382;53.160;7.026;2022-10-31T07:40:05;27.77;;;15.50;;
52470;SDS011;38382;53.160;7.026;2022-10-31T07:42:39;32.60;;;16.55;;
52470;SDS011;38382;53.160;7.026;2022-10-31T07:45:06;22.88;;;14.20;;
52470;SDS011;38382;53.160;7.026;2022-10-31T07:47:38;29.47;;;16.73;;
52470;SDS011;38382;53.160;7.026;2022-10-31T07:50:12;31.95;;;18.17;;
52470;SDS011;38382;53.160;7.026;2022-10-31T07:52:39;26.23;;;16.60;;
52470;SDS011;38382;53.160;7.026;2022-10-31T07:55:06;24.85;;;14.90;;
52470;SDS011;38382;53.160;7.026;2022-10-31T07:57:32;23.23;;;15.38;;
52470;SDS011;38382;53.160;7.026;2022-10-31T07:59:58;27.23;;;15.48;;
52470;SDS011;38382;53.160;7.026;2022-10-31T08:02:24;25.48;;;16.10;;
52470;SDS011;38382;53.160;7.026;2022-10-31T08:04:50;29.08;;;17.08;;
52470;SDS011;38382;53.160;7.026;2022-10-31T08:07:16;28.05;;;16.80;;
52470;SDS011;38382;53.160;7.026;2022-10-31T08:09:42;33.40;;;17.90;;
52470;SDS011;38382;53.160;7.026;2022-10-31T08:12:08;29.42;;;17.92;;
52470;SDS011;38382;53.160;7.026;2022-10-31T08:14:33;30.40;;;16.90;;
52470;SDS011;38382;53.160;7.026;2022-10-31T08:16:59;25.92;;;17.40;;
52470;SDS011;38382;53.160;7.026;2022-10-31T08:19:25;26.58;;;16.17;;
52470;SDS011;38382;53.160;7.026;2022-10-31T08:21:51;32.03;;;18.67;;
52470;SDS011;38382;53.160;7.026;2022-10-31T08:24:20;34.83;;;19.83;;
52470;SDS011;38382;53.160;7.026;2022-10-31T08:26:46;32.10;;;19.15;;
52470;SDS011;38382;53.160;7.026;2022-10-31T08:29:12;26.77;;;18.02;;
52470;SDS011;38382;53.160;7.026;2022-10-31T08:31:39;36.55;;;21.52;;
52470;SDS011;38382;53.160;7.026;2022-10-31T08:34:06;28.50;;;19.38;;
52470;SDS011;38382;53.160;7.026;2022-10-31T08:36:31;27.95;;;17.33;;
52470;SDS011;38382;53.160;7.026;2022-10-31T08:38:57;31.30;;;18.05;;
52470;SDS011;38382;53.160;7.026;2022-10-31T08:41:23;26.17;;;16.65;;
52470;SDS011;38382;53.160;7.026;2022-10-31T08:43:49;27.77;;;16.45;;
52470;SDS011;38382;53.160;7.026;2022-10-31T08:46:15;23.38;;;15.13;;
52470;SDS011;38382;53.160;7.026;2022-10-31T08:48:41;22.58;;;14.45;;
52470;SDS011;38382;53.160;7.026;2022-10-31T08:51:07;23.55;;;14.60;;
52470;SDS011;38382;53.160;7.026;2022-10-31T08:53:34;25.20;;;15.63;;
52470;SDS011;38382;53.160;7.026;2022-10-31T08:56:00;21.75;;;14.40;;
52470;SDS011;38382;53.160;7.026;2022-10-31T08:58:25;21.25;;;13.77;;
52470;SDS011;38382;53.160;7.026;2022-10-31T09:00:52;20.83;;;14.45;;
52470;SDS011;38382;53.160;7.026;2022-10-31T09:05:49;21.73;;;14.13;;
52470;SDS011;38382;53.160;7.026;2022-10-31T09:08:15;20.92;;;14.38;;
52470;SDS011;38382;53.160;7.026;2022-10-31T09:10:42;22.70;;;14.45;;
52470;SDS011;38382;53.160;7.026;2022-10-31T09:13:12;19.63;;;13.93;;
52470;SDS011;38382;53.160;7.026;2022-10-31T09:15:40;20.57;;;14.20;;
52470;SDS011;38382;53.160;7.026;2022-10-31T09:18:08;25.13;;;15.70;;
52470;SDS011;38382;53.160;7.026;2022-10-31T09:20:39;22.13;;;15.23;;
52470;SDS011;38382;53.160;7.026;2022-10-31T09:23:08;26.30;;;16.35;;
52470;SDS011;38382;53.160;7.026;2022-10-31T09:28:06;26.75;;;17.08;;
52470;SDS011;38382;53.160;7.026;2022-10-31T09:30:34;26.45;;;16.13;;
52470;SDS011;38382;53.160;7.026;2022-10-31T09:33:09;24.08;;;16.50;;
52470;SDS011;38382;53.160;7.026;2022-10-31T09:35:36;22.95;;;15.25;;
52470;SDS011;38382;53.160;7.026;2022-10-31T09:38:08;23.02;;;15.55;;
52470;SDS011;38382;53.160;7.026;2022-10-31T09:40:36;24.88;;;16.15;;
52470;SDS011;38382;53.160;7.026;2022-10-31T09:43:15;22.67;;;14.93;;
52470;SDS011;38382;53.160;7.026;2022-10-31T09:46:08;24.00;;;15.00;;
52470;SDS011;38382;53.160;7.026;2022-10-31T09:48:44;24.90;;;15.43;;
52470;SDS011;38382;53.160;7.026;2022-10-31T09:51:24;28.95;;;14.95;;
52470;SDS011;38382;53.160;7.026;2022-10-31T09:56:35;22.55;;;14.02;;
52470;SDS011;38382;53.160;7.026;2022-10-31T09:59:03;19.98;;;13.07;;
52470;SDS011;38382;53.160;7.026;2022-10-31T10:06:46;22.15;;;12.07;;
52470;SDS011;38382;53.160;7.026;2022-10-31T10:09:14;19.67;;;12.07;;
52470;SDS011;38382;53.160;7.026;2022-10-31T10:11:44;21.38;;;11.70;;
52470;SDS011;38382;53.160;7.026;2022-10-31T10:23:10;23.42;;;11.80;;
52470;SDS011;38382;53.160;7.026;2022-10-31T10:26:10;19.35;;;10.75;;
52470;SDS011;38382;53.160;7.026;2022-10-31T10:28:44;22.30;;;11.70;;
52470;SDS011;38382;53.160;7.026;2022-10-31T10:31:20;18.40;;;10.80;;
52470;SDS011;38382;53.160;7.026;2022-10-31T10:34:07;20.05;;;11.70;;
52470;SDS011;38382;53.160;7.026;2022-10-31T10:39:27;19.23;;;11.85;;
52470;SDS011;38382;53.160;7.026;2022-10-31T10:44:45;19.83;;;11.27;;
52470;SDS011;38382;53.160;7.026;2022-10-31T10:47:41;23.50;;;13.40;;
52470;SDS011;38382;53.160;7.026;2022-10-31T10:50:14;20.65;;;12.90;;
52470;SDS011;38382;53.160;7.026;2022-10-31T10:55:17;19.00;;;13.13;;
52470;SDS011;38382;53.160;7.026;2022-10-31T10:57:58;20.83;;;12.68;;
52470;SDS011;38382;53.160;7.026;2022-10-31T11:00:30;18.80;;;12.60;;
52470;SDS011;38382;53.160;7.026;2022-10-31T11:02:56;19.33;;;12.35;;
52470;SDS011;38382;53.160;7.026;2022-10-31T11:05:44;21.10;;;12.27;;
52470;SDS011;38382;53.160;7.026;2022-10-31T11:08:22;20.52;;;11.70;;
52470;SDS011;38382;53.160;7.026;2022-10-31T11:11:35;17.80;;;11.82;;
52470;SDS011;38382;53.160;7.026;2022-10-31T11:13:42;19.00;;;11.07;;
52470;SDS011;38382;53.160;7.026;2022-10-31T11:16:37;18.02;;;11.88;;
52470;SDS011;38382;53.160;7.026;2022-10-31T11:19:07;18.70;;;11.00;;
52470;SDS011;38382;53.160;7.026;2022-10-31T11:21:45;18.83;;;10.07;;
52470;SDS011;38382;53.160;7.026;2022-10-31T11:24:18;19.55;;;10.35;;
52470;SDS011;38382;53.160;7.026;2022-10-31T11:26:46;15.70;;;10.15;;
52470;SDS011;38382;53.160;7.026;2022-10-31T11:29:20;16.10;;;10.70;;
52470;SDS011;38382;53.160;7.026;2022-10-31T11:31:50;20.27;;;10.55;;
52470;SDS011;38382;53.160;7.026;2022-10-31T11:34:31;16.73;;;9.77;;
52470;SDS011;38382;53.160;7.026;2022-10-31T11:37:11;18.50;;;10.02;;
52470;SDS011;38382;53.160;7.026;2022-10-31T11:40:06;17.38;;;9.60;;
52470;SDS011;38382;53.160;7.026;2022-10-31T11:42:41;14.63;;;8.98;;
52470;SDS011;38382;53.160;7.026;2022-10-31T11:45:18;17.85;;;9.68;;
52470;SDS011;38382;53.160;7.026;2022-10-31T11:47:57;14.10;;;8.43;;
52470;SDS011;38382;53.160;7.026;2022-10-31T11:50:27;14.25;;;8.38;;
52470;SDS011;38382;53.160;7.026;2022-10-31T11:53:12;14.30;;;7.85;;
52470;SDS011;38382;53.160;7.026;2022-10-31T11:56:13;15.60;;;7.97;;
52470;SDS011;38382;53.160;7.026;2022-10-31T11:58:40;15.10;;;7.68;;
52470;SDS011;38382;53.160;7.026;2022-10-31T12:01:20;12.50;;;7.57;;
52470;SDS011;38382;53.160;7.026;2022-10-31T12:04:15;10.30;;;6.10;;
52470;SDS011;38382;53.160;7.026;2022-10-31T12:06:42;13.07;;;6.45;;
52470;SDS011;38382;53.160;7.026;2022-10-31T12:09:28;11.27;;;5.93;;
52470;SDS011;38382;53.160;7.026;2022-10-31T12:12:05;12.75;;;7.35;;
52470;SDS011;38382;53.160;7.026;2022-10-31T12:17:28;13.43;;;8.20;;
52470;SDS011;38382;53.160;7.026;2022-10-31T12:20:12;27.13;;;17.10;;
52470;SDS011;38382;53.160;7.026;2022-10-31T12:30:53;25.67;;;15.90;;
52470;SDS011;38382;53.160;7.026;2022-10-31T12:39:36;16.67;;;11.80;;
52470;SDS011;38382;53.160;7.026;2022-10-31T12:50:28;19.15;;;11.32;;
52470;SDS011;38382;53.160;7.026;2022-10-31T12:58:47;17.00;;;9.57;;
52470;SDS011;38382;53.160;7.026;2022-10-31T13:04:01;14.27;;;7.47;;
52470;SDS011;38382;53.160;7.026;2022-10-31T13:06:44;13.60;;;8.00;;
52470;SDS011;38382;53.160;7.026;2022-10-31T13:09:33;16.73;;;8.40;;
52470;SDS011;38382;53.160;7.026;2022-10-31T13:12:10;15.13;;;9.25;;
52470;SDS011;38382;53.160;7.026;2022-10-31T13:17:13;15.63;;;8.57;;
52470;SDS011;38382;53.160;7.026;2022-10-31T13:20:43;18.90;;;8.85;;
52470;SDS011;38382;53.160;7.026;2022-10-31T13:23:05;15.10;;;8.48;;
52470;SDS011;38382;53.160;7.026;2022-10-31T13:25:45;18.40;;;8.00;;
52470;SDS011;38382;53.160;7.026;2022-10-31T13:30:49;18.52;;;9.02;;
52470;SDS011;38382;53.160;7.026;2022-10-31T13:33:17;16.13;;;7.70;;
52470;SDS011;38382;53.160;7.026;2022-10-31T13:41:48;12.88;;;7.32;;
52470;SDS011;38382;53.160;7.026;2022-10-31T13:44:28;14.77;;;7.63;;
52470;SDS011;38382;53.160;7.026;2022-10-31T13:49:36;15.50;;;7.28;;
52470;SDS011;38382;53.160;7.026;2022-10-31T13:54:39;16.85;;;6.72;;
52470;SDS011;38382;53.160;7.026;2022-10-31T13:57:16;11.65;;;6.28;;
52470;SDS011;38382;53.160;7.026;2022-10-31T14:00:07;14.68;;;6.55;;
52470;SDS011;38382;53.160;7.026;2022-10-31T14:02:57;10.55;;;6.25;;
52470;SDS011;38382;53.160;7.026;2022-10-31T14:05:33;11.30;;;6.82;;
52470;SDS011;38382;53.160;7.026;2022-10-31T14:08:02;13.10;;;6.05;;
52470;SDS011;38382;53.160;7.026;2022-10-31T14:10:31;13.25;;;6.63;;
52470;SDS011;38382;53.160;7.026;2022-10-31T14:13:17;9.90;;;5.45;;
52470;SDS011;38382;53.160;7.026;2022-10-31T14:15:56;10.65;;;6.18;;
52470;SDS011;38382;53.160;7.026;2022-10-31T14:18:31;12.70;;;6.47;;
52470;SDS011;38382;53.160;7.026;2022-10-31T14:23:50;12.60;;;6.57;;
52470;SDS011;38382;53.160;7.026;2022-10-31T14:26:18;12.90;;;7.00;;
52470;SDS011;38382;53.160;7.026;2022-10-31T14:28:47;12.07;;;7.22;;
52470;SDS011;38382;53.160;7.026;2022-10-31T14:51:20;13.43;;;6.97;;
52470;SDS011;38382;53.160;7.026;2022-10-31T14:53:48;14.82;;;7.25;;
52470;SDS011;38382;53.160;7.026;2022-10-31T14:56:35;10.27;;;5.88;;
52470;SDS011;38382;53.160;7.026;2022-10-31T14:59:09;13.45;;;6.03;;
52470;SDS011;38382;53.160;7.026;2022-10-31T15:01:39;9.90;;;5.85;;
52470;SDS011;38382;53.160;7.026;2022-10-31T15:04:43;10.02;;;5.28;;
52470;SDS011;38382;53.160;7.026;2022-10-31T15:07:16;13.20;;;4.78;;
52470;SDS011;38382;53.160;7.026;2022-10-31T15:09:45;10.60;;;5.03;;
52470;SDS011;38382;53.160;7.026;2022-10-31T15:12:31;8.82;;;4.97;;
52470;SDS011;38382;53.160;7.026;2022-10-31T15:15:12;9.55;;;4.82;;
52470;SDS011;38382;53.160;7.026;2022-10-31T15:17:48;11.18;;;5.03;;
52470;SDS011;38382;53.160;7.026;2022-10-31T15:20:21;12.55;;;5.22;;
52470;SDS011;38382;53.160;7.026;2022-10-31T15:22:49;11.00;;;5.20;;
52470;SDS011;38382;53.160;7.026;2022-10-31T15:25:20;11.27;;;5.53;;
52470;SDS011;38382;53.160;7.026;2022-10-31T15:30:32;9.88;;;5.43;;
52470;SDS011;38382;53.160;7.026;2022-10-31T15:32:57;10.40;;;5.32;;
52470;SDS011;38382;53.160;7.026;2022-10-31T15:35:27;11.88;;;5.13;;
52470;SDS011;38382;53.160;7.026;2022-10-31T15:37:54;11.25;;;5.30;;
52470;SDS011;38382;53.160;7.026;2022-10-31T15:40:23;9.55;;;5.10;;
52470;SDS011;38382;53.160;7.026;2022-10-31T15:42:54;11.10;;;5.20;;
52470;SDS011;38382;53.160;7.026;2022-10-31T15:45:23;14.25;;;5.03;;
52470;SDS011;38382;53.160;7.026;2022-10-31T15:50:40;8.60;;;5.25;;
52470;SDS011;38382;53.160;7.026;2022-10-31T15:53:17;11.23;;;5.00;;
52470;SDS011;38382;53.160;7.026;2022-10-31T15:55:47;10.82;;;5.07;;
52470;SDS011;38382;53.160;7.026;2022-10-31T15:58:24;10.25;;;5.43;;
52470;SDS011;38382;53.160;7.026;2022-10-31T16:01:04;10.50;;;6.03;;
52470;SDS011;38382;53.160;7.026;2022-10-31T16:03:43;11.73;;;6.13;;
52470;SDS011;38382;53.160;7.026;2022-10-31T16:06:19;12.63;;;6.05;;
52470;SDS011;38382;53.160;7.026;2022-10-31T16:08:47;13.40;;;6.78;;
52470;SDS011;38382;53.160;7.026;2022-10-31T16:14:02;11.18;;;6.90;;
52470;SDS011;38382;53.160;7.026;2022-10-31T16:16:32;10.85;;;6.70;;
52470;SDS011;38382;53.160;7.026;2022-10-31T16:18:59;13.27;;;6.93;;
52470;SDS011;38382;53.160;7.026;2022-10-31T16:21:31;13.43;;;6.90;;
52470;SDS011;38382;53.160;7.026;2022-10-31T16:24:03;11.18;;;6.28;;
52470;SDS011;38382;53.160;7.026;2022-10-31T16:26:46;10.10;;;6.53;;
52470;SDS011;38382;53.160;7.026;2022-10-31T16:29:27;11.77;;;6.65;;
52470;SDS011;38382;53.160;7.026;2022-10-31T16:31:58;13.10;;;7.55;;
52470;SDS011;38382;53.160;7.026;2022-10-31T16:34:24;12.00;;;7.60;;
52470;SDS011;38382;53.160;7.026;2022-10-31T16:36:49;12.85;;;7.63;;
52470;SDS011;38382;53.160;7.026;2022-10-31T16:39:15;9.80;;;6.30;;
52470;SDS011;38382;53.160;7.026;2022-10-31T16:45:12;15.32;;;7.88;;
52470;SDS011;38382;53.160;7.026;2022-10-31T16:47:47;10.65;;;7.00;;
52470;SDS011;38382;53.160;7.026;2022-10-31T16:50:21;14.02;;;8.18;;
52470;SDS011;38382;53.160;7.026;2022-10-31T16:52:51;11.20;;;7.45;;
52470;SDS011;38382;53.160;7.026;2022-10-31T16:55:18;17.90;;;10.10;;
52470;SDS011;38382;53.160;7.026;2022-10-31T16:57:46;16.88;;;10.63;;
52470;SDS011;38382;53.160;7.026;2022-10-31T17:00:18;15.50;;;9.90;;
52470;SDS011;38382;53.160;7.026;2022-10-31T17:02:45;15.07;;;9.23;;
52470;SDS011;38382;53.160;7.026;2022-10-31T17:05:14;24.88;;;14.23;;
52470;SDS011;38382;53.160;7.026;2022-10-31T17:07:42;18.38;;;11.77;;
52470;SDS011;38382;53.160;7.026;2022-10-31T17:10:08;21.70;;;12.73;;
52470;SDS011;38382;53.160;7.026;2022-10-31T17:12:35;17.70;;;11.35;;